Time;durP1;ratioP1;P1;durP2;ratioP2;P2;SDS_P1;SDS_P2;PMS_P1;PMS_P2;Temp;Humidity;BMP_temperature;BMP_pressure;BME280_temperature;BME280_humidity;BME280_pressure;Samples;Min_cycle;Max_cycle;Signal;HPM_P1;HPM_P2
2022/12/26 00:02:02;;;;;;;18.10;7.50;;;;;;;3.87;80.57;99306.45;103270;1293;108129;-68
2022/12/26 00:04:30;;;;;;;19.00;7.10;;;;;;;3.90;80.48;99318.27;103278;1298;99171;-69
2022/12/26 00:07:19;;;;;;;20.90;7.00;;;;;;;3.92;80.41;99313.10;103300;1301;99363;-69
2022/12/26 00:09:51;;;;;;;20.10;7.50;;;;;;;3.93;80.45;99304.28;103251;1287;112707;-68
2022/12/26 00:12:19;;;;;;;15.70;6.20;;;;;;;3.96;80.42;99302.43;103232;1294;97705;-68
2022/12/26 00:14:51;;;;;;;18.00;7.20;;;;;;;3.97;80.37;99309.40;103202;1294;108296;-68
2022/12/26 00:17:18;;;;;;;15.80;6.40;;;;;;;3.98;80.45;99316.35;103215;1294;99318;-68
2022/12/26 00:19:46;;;;;;;16.80;6.50;;;;;;;4.00;80.36;99313.14;103307;1301;98288;-68
2022/12/26 00:22:19;;;;;;;16.50;6.50;;;;;;;4.01;80.39;99308.17;103296;1301;112702;-69
2022/12/26 00:24:47;;;;;;;17.90;7.00;;;;;;;4.01;80.28;99304.30;103241;1293;99785;-67
2022/12/26 00:27:20;;;;;;;19.60;6.50;;;;;;;4.02;80.35;99303.38;103301;1295;108079;-69
2022/12/26 00:29:52;;;;;;;15.30;6.20;;;;;;;4.05;80.33;99305.58;103262;1294;100270;-67
2022/12/26 00:32:20;;;;;;;18.20;6.00;;;;;;;4.07;80.33;99302.52;103211;1294;99204;-68
2022/12/26 00:34:49;;;;;;;15.40;6.00;;;;;;;4.07;80.44;99300.02;103253;1295;112679;-68
2022/12/26 00:37:17;;;;;;;14.30;5.80;;;;;;;4.09;80.35;99295.21;103250;1294;99007;-68
2022/12/26 00:39:48;;;;;;;15.60;6.30;;;;;;;4.11;80.34;99296.70;103190;1300;108195;-69
2022/12/26 00:42:16;;;;;;;16.10;5.80;;;;;;;4.11;80.30;99292.11;103245;1294;96550;-68
2022/12/26 00:44:44;;;;;;;12.20;5.00;;;;;;;4.12;80.34;99291.55;103257;1295;99214;-68
2022/12/26 00:47:12;;;;;;;11.70;4.60;;;;;;;4.14;80.33;99291.84;103237;1301;112710;-67
2022/12/26 00:49:40;;;;;;;15.80;5.30;;;;;;;4.16;80.34;99287.70;103277;1294;97554;-68
2022/12/26 00:52:28;;;;;;;14.60;5.20;;;;;;;4.18;80.36;99288.70;103166;1287;107790;-70
2022/12/26 00:54:56;;;;;;;15.30;5.60;;;;;;;4.19;80.37;99277.77;103266;1296;99251;-69
2022/12/26 00:57:24;;;;;;;15.50;5.40;;;;;;;4.20;80.28;99277.20;103320;1294;98324;-68
2022/12/26 00:59:57;;;;;;;12.70;5.00;;;;;;;4.20;80.27;99273.52;103288;1301;113217;-69
2022/12/26 01:02:37;;;;;;;15.70;5.60;;;;;;;4.21;80.39;99275.77;103250;1301;97109;-70
2022/12/26 01:05:12;;;;;;;12.70;5.00;;;;;;;4.22;80.26;99279.61;103220;1295;108068;-68
2022/12/26 01:07:42;;;;;;;11.70;5.10;;;;;;;4.21;80.28;99283.65;103220;1294;99208;-69
2022/12/26 01:10:30;;;;;;;15.90;5.90;;;;;;;4.21;80.32;99272.78;103218;1297;99358;-71
2022/12/26 01:12:58;;;;;;;16.20;5.70;;;;;;;4.21;80.29;99276.80;103283;1301;113140;-68
2022/12/26 01:15:26;;;;;;;16.50;5.90;;;;;;;4.22;80.37;99273.98;103331;1300;97892;-68
2022/12/26 01:17:54;;;;;;;15.30;5.60;;;;;;;4.22;80.37;99273.27;103151;1296;107925;-69
2022/12/26 01:20:22;;;;;;;13.80;5.30;;;;;;;4.21;80.34;99268.73;103287;1301;97834;-68
2022/12/26 01:22:51;;;;;;;17.80;5.50;;;;;;;4.21;80.27;99268.05;103332;1294;99182;-67
2022/12/26 01:25:19;;;;;;;14.90;5.20;;;;;;;4.21;80.30;99267.53;103242;1300;113395;-68
2022/12/26 01:27:47;;;;;;;15.00;5.60;;;;;;;4.20;80.33;99260.02;103240;1302;99223;-68
2022/12/26 01:30:15;;;;;;;13.60;5.40;;;;;;;4.20;80.34;99260.90;103215;1288;108096;-68
2022/12/26 01:32:43;;;;;;;19.20;6.20;;;;;;;4.20;80.34;99256.63;103203;1294;99312;-69
2022/12/26 01:35:14;;;;;;;16.70;5.90;;;;;;;4.21;80.42;99258.02;103301;1293;99355;-69
2022/12/26 01:37:42;;;;;;;15.50;6.10;;;;;;;4.22;80.42;99256.41;103259;1301;112711;-68
2022/12/26 01:40:13;;;;;;;13.90;5.30;;;;;;;4.22;80.35;99257.45;103285;1300;99214;-69
2022/12/26 01:42:41;;;;;;;14.20;5.40;;;;;;;4.24;80.40;99253.67;103297;1287;106158;-69
2022/12/26 01:45:34;;;;;;;14.60;5.80;;;;;;;4.25;80.38;99260.16;103216;1288;99326;-69
2022/12/26 01:48:11;;;;;;;16.30;5.70;;;;;;;4.26;80.35;99274.14;103198;1295;99304;-68
2022/12/26 01:51:07;;;;;;;15.60;5.70;;;;;;;4.26;80.41;99269.54;103208;1301;113093;-69
2022/12/26 01:53:42;;;;;;;16.60;5.80;;;;;;;4.28;80.35;99261.55;103266;1300;99350;-68
2022/12/26 01:56:18;;;;;;;15.30;5.90;;;;;;;4.29;80.42;99249.91;103302;1294;108116;-68
2022/12/26 01:58:55;;;;;;;16.00;5.90;;;;;;;4.29;80.43;99235.02;103269;1298;99233;-68
2022/12/26 02:01:30;;;;;;;13.20;5.60;;;;;;;4.27;80.39;99221.05;103298;1292;99313;-67
2022/12/26 02:06:51;;;;;;;13.00;5.50;;;;;;;4.25;80.39;99211.16;103270;1295;99251;-69
2022/12/26 02:09:21;;;;;;;15.00;5.40;;;;;;;4.26;80.37;99209.90;103209;1300;108128;-68
2022/12/26 02:12:01;;;;;;;19.10;6.00;;;;;;;4.26;80.45;99217.27;103260;1295;99317;-68
2022/12/26 02:14:51;;;;;;;14.20;5.70;;;;;;;4.26;80.42;99220.23;103281;1298;96655;-67
2022/12/26 02:17:22;;;;;;;14.90;6.00;;;;;;;4.26;80.42;99211.83;103266;1301;113053;-67
2022/12/26 02:20:19;;;;;;;16.50;5.70;;;;;;;4.26;80.38;99206.03;103253;1299;96570;-67
2022/12/26 02:23:24;;;;;;;14.50;6.10;;;;;;;4.25;80.33;99203.42;103207;1300;108114;-68
2022/12/26 02:26:22;;;;;;;15.20;6.10;;;;;;;4.25;80.42;99198.16;103234;1295;99244;-68
2022/12/26 02:29:40;;;;;;;15.70;6.10;;;;;;;4.24;80.43;99194.52;103311;1294;99334;-67
2022/12/26 02:32:13;;;;;;;19.50;7.20;;;;;;;4.24;80.43;99202.39;103306;1301;113216;-67
2022/12/26 02:35:33;;;;;;;14.20;6.10;;;;;;;4.26;80.43;99209.70;103291;1293;96908;-67
2022/12/26 02:38:43;;;;;;;16.50;6.00;;;;;;;4.28;80.51;99198.58;103101;1301;108456;-67
2022/12/26 02:41:29;;;;;;;17.80;6.50;;;;;;;4.29;80.46;99190.64;103188;1301;99945;-68
2022/12/26 02:47:55;;;;;;;18.20;6.80;;;;;;;4.31;80.40;99178.91;103071;1299;113301;-68
2022/12/26 03:14:31;;;;;;;18.20;7.00;;;;;;;4.53;80.56;99148.59;103279;1294;99330;-68
2022/12/26 03:17:21;;;;;;;18.40;7.10;;;;;;;4.58;80.62;99156.45;103288;1295;113537;-67
2022/12/26 03:20:01;;;;;;;20.60;7.50;;;;;;;4.63;80.52;99160.96;103129;1294;98340;-67
2022/12/26 03:22:55;;;;;;;19.80;8.10;;;;;;;4.68;80.63;99155.31;103120;1304;107756;-68
2022/12/26 03:28:42;;;;;;;20.10;8.10;;;;;;;4.80;80.73;99117.67;103355;1295;99586;-69
2022/12/26 03:31:14;;;;;;;19.40;8.00;;;;;;;4.85;80.65;99114.61;103320;1287;113560;-69
2022/12/26 03:36:52;;;;;;;19.90;7.60;;;;;;;4.96;80.55;99115.85;103248;1301;108015;-67
2022/12/26 04:19:43;;;;;;;20.30;8.20;;;;;;;5.21;80.36;99058.54;103294;1295;100942;-69
2022/12/26 04:46:26;;;;;;;17.90;7.00;;;;;;;5.30;80.45;99080.23;103282;1295;112878;-69
2022/12/26 04:51:55;;;;;;;20.60;7.90;;;;;;;5.34;80.35;99073.34;103285;1301;108121;-68
2022/12/26 04:54:24;;;;;;;16.80;7.20;;;;;;;5.35;80.57;99075.05;103293;1302;99092;-68
2022/12/26 04:56:54;;;;;;;16.20;7.40;;;;;;;5.36;80.50;99074.83;103283;1301;96527;-68
2022/12/26 04:59:25;;;;;;;18.60;7.30;;;;;;;5.38;80.43;99071.06;103301;1294;113182;-68
2022/12/26 05:10:26;;;;;;;20.40;8.40;;;;;;;5.42;80.54;99061.87;103236;1293;96700;-68
2022/12/26 05:12:57;;;;;;;17.90;6.60;;;;;;;5.42;80.54;99057.11;103265;1298;113201;-67
2022/12/26 05:15:27;;;;;;;16.90;6.90;;;;;;;5.43;80.48;99058.84;103201;1301;99158;-69
2022/12/26 05:29:16;;;;;;;17.20;7.20;;;;;;;5.44;80.51;99026.96;103287;1294;99240;-68
2022/12/26 05:31:44;;;;;;;16.60;7.60;;;;;;;5.44;80.54;99014.31;103289;1294;107760;-68
2022/12/26 05:34:16;;;;;;;18.30;7.80;;;;;;;5.44;80.42;98994.61;103234;1293;99330;-69
2022/12/26 05:36:52;;;;;;;15.90;6.90;;;;;;;5.44;80.36;98992.16;103265;1293;99225;-71
2022/12/26 05:39:20;;;;;;;16.50;7.10;;;;;;;5.43;80.56;98985.67;103305;1295;112589;-67
2022/12/26 05:41:48;;;;;;;19.10;7.10;;;;;;;5.44;80.52;98985.64;103241;1287;99245;-69
2022/12/26 05:44:19;;;;;;;17.80;6.90;;;;;;;5.44;80.51;98979.99;103210;1293;108060;-67
2022/12/26 05:46:47;;;;;;;19.90;7.60;;;;;;;5.45;80.37;98979.57;103195;1288;99946;-68
2022/12/26 05:49:19;;;;;;;15.20;6.50;;;;;;;5.46;80.31;98970.36;103265;1298;96575;-67
2022/12/26 05:51:52;;;;;;;17.20;7.00;;;;;;;5.47;80.39;98971.55;103209;1295;113122;-68
2022/12/26 05:54:20;;;;;;;13.70;6.10;;;;;;;5.48;80.51;98964.14;103265;1301;99284;-68
2022/12/26 05:56:48;;;;;;;16.10;6.50;;;;;;;5.48;80.35;98966.91;103221;1298;108119;-68
2022/12/26 05:59:21;;;;;;;15.30;6.20;;;;;;;5.49;80.20;98976.20;103274;1295;96544;-67
2022/12/26 06:01:49;;;;;;;14.10;5.70;;;;;;;5.50;80.35;98987.74;103229;1301;99297;-68
2022/12/26 06:04:25;;;;;;;15.30;6.50;;;;;;;5.52;80.39;98982.23;103304;1294;113131;-69
2022/12/26 06:06:55;;;;;;;15.10;6.40;;;;;;;5.53;80.40;98980.94;103334;1301;99332;-68
2022/12/26 06:09:24;;;;;;;15.40;6.10;;;;;;;5.54;80.41;98990.20;103205;1294;108188;-67
2022/12/26 06:11:52;;;;;;;15.40;6.40;;;;;;;5.56;80.32;98992.93;103196;1295;99302;-68
2022/12/26 06:14:20;;;;;;;16.40;6.30;;;;;;;5.56;80.28;98989.55;103246;1294;99263;-68
2022/12/26 06:16:48;;;;;;;14.70;6.00;;;;;;;5.57;80.25;98988.48;103209;1300;113138;-67
2022/12/26 06:19:18;;;;;;;15.90;6.10;;;;;;;5.57;80.38;98989.36;103220;1293;97703;-67
2022/12/26 06:21:46;;;;;;;13.70;5.50;;;;;;;5.57;80.19;98989.34;103191;1294;108433;-67
2022/12/26 06:24:15;;;;;;;14.70;5.70;;;;;;;5.58;80.25;98985.94;103285;1291;96548;-67
2022/12/26 06:26:43;;;;;;;13.10;5.70;;;;;;;5.59;80.43;98988.16;103225;1301;96586;-69
2022/12/26 06:29:11;;;;;;;16.60;6.20;;;;;;;5.60;80.25;98992.20;103263;1294;113155;-68
2022/12/26 06:31:39;;;;;;;14.70;5.90;;;;;;;5.60;80.29;98986.16;103302;1300;99315;-68
2022/12/26 06:34:11;;;;;;;14.30;5.70;;;;;;;5.62;80.33;98990.10;103180;1300;108097;-69
2022/12/26 06:36:41;;;;;;;16.00;6.00;;;;;;;5.65;80.22;98986.98;103206;1294;99281;-70
2022/12/26 06:39:10;;;;;;;15.00;5.90;;;;;;;5.65;80.21;98986.81;103221;1295;99191;-70
2022/12/26 06:41:38;;;;;;;12.90;5.10;;;;;;;5.66;80.34;98995.52;103197;1295;113192;-67
2022/12/26 06:44:13;;;;;;;17.20;6.80;;;;;;;5.67;80.40;98993.20;103273;1295;99382;-67
2022/12/26 06:46:49;;;;;;;19.00;6.10;;;;;;;5.69;80.37;98998.22;103198;1302;107905;-69
2022/12/26 06:49:24;;;;;;;17.80;6.00;;;;;;;5.69;80.23;98993.46;103236;1301;96558;-68
2022/12/26 06:52:00;;;;;;;15.20;5.60;;;;;;;5.70;80.28;98989.36;103258;1298;99292;-66
2022/12/26 06:54:32;;;;;;;16.20;6.30;;;;;;;5.71;80.35;98988.08;103198;1301;112746;-68
2022/12/26 06:57:00;;;;;;;17.00;6.60;;;;;;;5.73;80.31;98988.86;103266;1294;96462;-66
2022/12/26 06:59:33;;;;;;;18.60;6.20;;;;;;;5.74;80.21;98991.79;103284;1293;108193;-67
2022/12/26 07:02:01;;;;;;;16.70;5.90;;;;;;;5.75;80.30;98991.69;103270;1295;99317;-66
2022/12/26 07:04:30;;;;;;;17.40;6.70;;;;;;;5.77;80.25;98991.63;103340;1301;99324;-67
2022/12/26 07:06:58;;;;;;;15.90;5.90;;;;;;;5.79;80.34;98986.04;103264;1294;113605;-68
2022/12/26 07:09:30;;;;;;;18.40;6.60;;;;;;;5.81;80.05;98979.21;103192;1294;99250;-68
2022/12/26 07:12:08;;;;;;;12.50;5.30;;;;;;;5.84;80.25;98979.97;103243;1294;108228;-67
2022/12/26 07:14:36;;;;;;;14.70;6.40;;;;;;;5.86;80.26;98987.06;103324;1293;99330;-68
2022/12/26 07:17:04;;;;;;;17.30;6.90;;;;;;;5.89;80.13;98987.77;103333;1287;99409;-66
2022/12/26 07:19:35;;;;;;;15.80;6.70;;;;;;;5.92;80.12;98983.22;103247;1301;113897;-67
2022/12/26 07:22:07;;;;;;;16.00;6.80;;;;;;;5.95;80.25;98981.13;103208;1294;99408;-67
2022/12/26 07:24:36;;;;;;;16.10;7.00;;;;;;;5.99;80.19;98982.70;103197;1293;108106;-67
2022/12/26 07:27:05;;;;;;;15.10;6.20;;;;;;;6.02;80.24;98979.19;103250;1302;99248;-68
2022/12/26 07:29:34;;;;;;;17.20;6.70;;;;;;;6.06;80.18;98978.81;103260;1295;96549;-68
2022/12/26 07:32:05;;;;;;;15.40;6.20;;;;;;;6.09;80.25;98982.88;103322;1295;112569;-67
2022/12/26 07:34:38;;;;;;;17.00;6.90;;;;;;;6.13;80.15;98989.00;103224;1285;97581;-67
2022/12/26 07:37:10;;;;;;;18.30;7.00;;;;;;;6.16;80.19;98991.12;103322;1294;108128;-67
2022/12/26 07:39:38;;;;;;;18.70;6.20;;;;;;;6.20;80.12;98999.53;103331;1301;99322;-66
2022/12/26 07:42:07;;;;;;;18.90;7.20;;;;;;;6.23;80.17;99003.02;103279;1301;99284;-68
2022/12/26 07:44:35;;;;;;;19.20;7.20;;;;;;;6.27;80.07;99002.49;103248;1294;113296;-67
2022/12/26 07:47:03;;;;;;;18.10;7.20;;;;;;;6.30;80.09;99001.42;103253;1295;96567;-67
2022/12/26 07:49:31;;;;;;;18.30;7.30;;;;;;;6.33;80.17;99006.16;103190;1301;107969;-66
2022/12/26 07:52:01;;;;;;;20.00;8.30;;;;;;;6.38;80.03;99011.54;104984;1295;96827;-67
2022/12/26 07:54:31;;;;;;;14.80;6.20;;;;;;;6.43;80.08;99010.05;105057;1285;97120;-67
2022/12/26 07:56:59;;;;;;;19.80;7.00;;;;;;;6.49;80.18;99008.84;104141;1295;112983;-68
2022/12/26 07:59:48;;;;;;;20.90;7.20;;;;;;;6.55;79.88;99011.83;103089;1294;96568;-66
2022/12/26 08:02:22;;;;;;;15.40;7.40;;;;;;;6.58;80.06;99015.68;103237;1301;108130;-67
2022/12/26 08:04:53;;;;;;;18.00;7.90;;;;;;;6.62;79.96;99021.29;103194;1300;99206;-68
2022/12/26 08:07:26;;;;;;;19.70;8.30;;;;;;;6.65;80.03;99030.85;103312;1298;99243;-69
2022/12/26 08:09:54;;;;;;;20.30;7.40;;;;;;;6.67;79.96;99035.98;103167;1303;111637;-69
2022/12/26 08:12:23;;;;;;;19.40;8.10;;;;;;;6.70;80.17;99035.98;104225;1301;96941;-68
2022/12/26 08:14:52;;;;;;;19.10;8.20;;;;;;;6.76;79.86;99033.20;103288;1301;108150;-68
2022/12/26 08:17:20;;;;;;;19.40;8.30;;;;;;;6.80;79.78;99042.28;103257;1294;96899;-68
2022/12/26 08:19:53;;;;;;;18.60;7.40;;;;;;;6.89;79.84;99046.93;103321;1301;99337;-68
2022/12/26 08:22:21;;;;;;;21.90;10.50;;;;;;;6.97;79.63;99049.07;103320;1294;113227;-67
2022/12/26 08:24:53;;;;;;;21.00;8.60;;;;;;;7.04;79.53;99045.52;103272;1293;99213;-68
2022/12/26 08:27:21;;;;;;;21.70;8.60;;;;;;;7.11;79.41;99040.02;103236;1285;108529;-68
2022/12/26 08:29:50;;;;;;;18.70;8.60;;;;;;;7.14;79.40;99029.92;103295;1294;99254;-68
2022/12/26 08:32:19;;;;;;;20.70;9.50;;;;;;;7.13;79.10;99031.56;103294;1297;99271;-68
2022/12/26 08:34:48;;;;;;;20.30;8.40;;;;;;;7.12;79.60;99023.16;103346;1300;112179;-68
2022/12/26 08:37:16;;;;;;;19.00;7.70;;;;;;;7.15;79.67;99018.40;103312;1301;99282;-68
2022/12/26 08:39:44;;;;;;;19.40;8.10;;;;;;;7.16;79.58;99012.53;103346;1294;108159;-68
2022/12/26 08:42:12;;;;;;;20.20;8.10;;;;;;;7.17;79.42;99009.65;103177;1294;99286;-68
2022/12/26 08:44:40;;;;;;;19.10;8.80;;;;;;;7.18;79.35;99009.95;103320;1302;99156;-68
2022/12/26 08:47:08;;;;;;;21.60;8.10;;;;;;;7.21;79.32;99014.92;103138;1296;113116;-67
2022/12/26 08:49:36;;;;;;;21.00;8.80;;;;;;;7.18;79.14;99007.51;103275;1293;99308;-69
2022/12/26 08:52:09;;;;;;;18.90;8.50;;;;;;;7.17;79.47;99015.30;103242;1298;108130;-70
2022/12/26 08:54:37;;;;;;;20.00;8.80;;;;;;;7.21;79.41;99019.64;103233;1298;99420;-69
2022/12/26 08:57:05;;;;;;;19.20;8.80;;;;;;;7.25;79.50;99027.55;103295;1294;96887;-71
2022/12/26 08:59:34;;;;;;;20.50;9.30;;;;;;;7.27;79.32;99019.13;103296;1300;112800;-69
2022/12/26 09:02:02;;;;;;;18.40;8.70;;;;;;;7.26;79.44;98987.63;103219;1294;98431;-68
2022/12/26 09:04:34;;;;;;;20.00;8.50;;;;;;;7.26;79.29;98985.87;103287;1293;108088;-67
2022/12/26 09:07:08;;;;;;;19.90;8.30;;;;;;;7.24;79.48;98990.17;103269;1301;97946;-68
2022/12/26 09:09:40;;;;;;;19.20;8.80;;;;;;;7.27;79.32;99004.66;103299;1301;99253;-71
2022/12/26 09:12:08;;;;;;;19.40;8.60;;;;;;;7.37;79.46;99007.79;103226;1293;113219;-68
2022/12/26 09:14:37;;;;;;;20.30;8.80;;;;;;;7.49;79.34;99018.03;103240;1300;99348;-68
2022/12/26 09:17:05;;;;;;;20.50;9.40;;;;;;;7.58;79.45;99023.59;103215;1294;108016;-67
2022/12/26 09:19:34;;;;;;;19.10;8.10;;;;;;;7.65;79.33;99014.93;103147;1297;99423;-68
2022/12/26 09:24:49;;;;;;;19.10;8.70;;;;;;;7.66;79.23;98985.38;103259;1294;113061;-69
2022/12/26 09:27:17;;;;;;;18.50;7.80;;;;;;;7.61;79.05;98974.20;103227;1293;96530;-68
2022/12/26 09:29:46;;;;;;;20.60;8.90;;;;;;;7.56;78.83;98969.05;103270;1301;106857;-68
2022/12/26 09:32:14;;;;;;;20.60;8.40;;;;;;;7.50;78.77;98966.98;103268;1290;99314;-68
2022/12/26 09:34:48;;;;;;;22.20;9.10;;;;;;;7.44;79.04;98965.89;103265;1300;99319;-68
2022/12/26 09:37:16;;;;;;;19.70;9.00;;;;;;;7.40;78.79;98976.70;103275;1294;111619;-70
2022/12/26 09:39:44;;;;;;;19.20;8.10;;;;;;;7.40;78.92;98980.05;103336;1294;97852;-70
2022/12/26 09:42:31;;;;;;;21.20;9.50;;;;;;;7.42;78.96;98979.58;103250;1299;108272;-71
2022/12/26 09:45:18;;;;;;;20.50;8.20;;;;;;;7.44;78.94;98981.91;103297;1292;99307;-67
2022/12/26 09:47:52;;;;;;;20.50;8.40;;;;;;;7.49;79.00;98980.26;103276;1301;99325;-68
2022/12/26 09:50:33;;;;;;;22.00;8.90;;;;;;;7.52;78.98;98972.11;103168;1293;113107;-68
2022/12/26 09:53:17;;;;;;;19.30;8.50;;;;;;;7.56;79.01;98972.76;103167;1285;99277;-67
2022/12/26 09:55:55;;;;;;;19.50;8.60;;;;;;;7.59;79.02;98972.20;103157;1302;107828;-67
2022/12/26 09:58:28;;;;;;;19.60;9.00;;;;;;;7.62;78.95;98975.23;103188;1293;99321;-67
2022/12/26 10:01:09;;;;;;;20.00;8.50;;;;;;;7.65;78.86;98976.23;103207;1301;99770;-67
2022/12/26 10:03:47;;;;;;;21.10;9.00;;;;;;;7.69;78.65;98967.58;103194;1300;112645;-68
2022/12/26 10:06:17;;;;;;;18.60;9.00;;;;;;;7.69;78.53;98965.38;103178;1302;99124;-67
2022/12/26 10:09:07;;;;;;;19.60;8.70;;;;;;;7.71;78.49;98961.41;103153;1301;107548;-67
2022/12/26 10:11:59;;;;;;;21.50;9.20;;;;;;;7.73;78.40;98958.27;103163;1300;99306;-68
2022/12/26 10:14:35;;;;;;;19.70;8.10;;;;;;;7.70;78.27;98947.36;103189;1301;99250;-69
2022/12/26 10:17:38;;;;;;;20.40;9.10;;;;;;;7.66;78.51;98941.27;103166;1294;113021;-67
2022/12/26 10:20:20;;;;;;;21.30;9.00;;;;;;;7.63;78.49;98946.93;103182;1293;99101;-69
2022/12/26 10:23:33;;;;;;;18.90;8.70;;;;;;;7.60;78.43;98946.39;103208;1300;108127;-69
2022/12/26 10:26:32;;;;;;;21.00;9.40;;;;;;;7.56;78.55;98944.89;103150;1293;99309;-68
2022/12/26 10:29:07;;;;;;;20.80;9.30;;;;;;;7.56;78.56;98950.31;103219;1300;99205;-68
2022/12/26 10:31:52;;;;;;;20.10;9.60;;;;;;;7.56;78.22;98959.87;103203;1294;113064;-68
2022/12/26 10:34:43;;;;;;;21.10;9.30;;;;;;;7.52;78.29;98956.05;103175;1300;98309;-67
2022/12/26 10:37:40;;;;;;;24.10;9.30;;;;;;;7.49;78.27;98946.17;103207;1294;108083;-68
2022/12/26 10:40:21;;;;;;;21.80;9.70;;;;;;;7.47;77.94;98929.18;103283;1292;99341;-68
2022/12/26 10:42:54;;;;;;;22.60;9.80;;;;;;;7.45;78.05;98928.42;103234;1292;96615;-67
2022/12/26 10:45:31;;;;;;;22.00;9.60;;;;;;;7.44;78.28;98927.44;103219;1294;112541;-67
2022/12/26 10:48:00;;;;;;;24.20;10.10;;;;;;;7.45;78.36;98936.14;103220;1300;99343;-67
2022/12/26 10:50:31;;;;;;;20.40;10.30;;;;;;;7.48;78.32;98936.35;103171;1300;108145;-69
2022/12/26 10:53:04;;;;;;;20.90;9.50;;;;;;;7.49;78.50;98929.42;103231;1301;99340;-68
2022/12/26 10:55:34;;;;;;;22.30;10.10;;;;;;;7.50;77.86;98930.77;103279;1294;99329;-65
2022/12/26 10:58:17;;;;;;;23.50;11.00;;;;;;;7.49;78.06;98923.10;103193;1300;112529;-67
2022/12/26 11:00:45;;;;;;;23.50;10.50;;;;;;;7.46;78.13;98925.16;103223;1300;99341;-68
2022/12/26 11:03:18;;;;;;;22.20;10.70;;;;;;;7.43;77.99;98921.67;103219;1300;108146;-68
2022/12/26 11:06:02;;;;;;;20.60;9.80;;;;;;;7.42;77.95;98924.17;103221;1300;99927;-67
2022/12/26 11:08:39;;;;;;;23.10;10.50;;;;;;;7.43;78.24;98927.29;103233;1302;96692;-67
2022/12/26 11:11:44;;;;;;;23.40;10.60;;;;;;;7.45;78.17;98933.35;103262;1300;113194;-67
2022/12/26 11:14:32;;;;;;;22.70;10.20;;;;;;;7.48;78.11;98922.46;103261;1296;99299;-68
2022/12/26 11:17:23;;;;;;;25.40;11.20;;;;;;;7.45;78.00;98914.86;103258;1297;108179;-67
2022/12/26 11:20:10;;;;;;;29.00;11.60;;;;;;;7.43;77.96;98905.58;103248;1301;99277;-67
2022/12/26 11:22:40;;;;;;;22.20;10.40;;;;;;;7.43;78.00;98902.05;103283;1301;99225;-67
2022/12/26 11:25:08;;;;;;;23.60;10.90;;;;;;;7.44;78.00;98896.16;103286;1302;113292;-67
2022/12/26 11:27:43;;;;;;;22.70;10.60;;;;;;;7.47;78.05;98892.35;103313;1296;99914;-67
2022/12/26 11:30:14;;;;;;;23.30;10.70;;;;;;;7.47;77.80;98886.85;103257;1295;107170;-67
2022/12/26 11:32:46;;;;;;;23.10;10.90;;;;;;;7.45;77.83;98886.24;103261;1294;99863;-69
2022/12/26 11:35:33;;;;;;;22.40;10.70;;;;;;;7.46;77.92;98890.44;103326;1294;99401;-68
2022/12/26 11:38:05;;;;;;;24.50;10.20;;;;;;;7.48;77.81;98886.45;103266;1295;113838;-67
2022/12/26 11:41:30;;;;;;;22.00;10.50;;;;;;;7.52;77.78;98887.23;103251;1295;96666;-68
2022/12/26 11:43:36;;;;;;;24.50;10.30;;;;;;;7.55;77.80;98896.90;103274;1302;108482;-67
2022/12/26 11:46:05;;;;;;;22.00;10.60;;;;;;;7.57;77.79;98898.94;103263;1294;99250;-67
2022/12/26 11:48:34;;;;;;;22.80;10.50;;;;;;;7.57;77.82;98906.52;103285;1300;96549;-68
2022/12/26 11:51:03;;;;;;;24.30;10.80;;;;;;;7.57;77.82;98914.23;103274;1295;113728;-68
2022/12/26 11:53:33;;;;;;;22.30;11.30;;;;;;;7.58;77.79;98909.60;103323;1291;99238;-66
2022/12/26 11:56:05;;;;;;;21.50;10.80;;;;;;;7.60;77.75;98898.55;103287;1300;108578;-67
2022/12/26 11:58:35;;;;;;;24.70;11.50;;;;;;;7.61;77.79;98896.00;103263;1291;99766;-68
2022/12/26 12:01:11;;;;;;;25.00;11.00;;;;;;;7.61;77.60;98890.92;103342;1298;99184;-68
2022/12/26 12:03:48;;;;;;;25.70;11.80;;;;;;;7.59;77.69;98899.11;103220;1293;114053;-68
2022/12/26 12:06:35;;;;;;;24.40;10.80;;;;;;;7.60;77.67;98901.54;103226;1295;99284;-67
2022/12/26 12:09:17;;;;;;;23.20;11.60;;;;;;;7.60;77.67;98897.11;103232;1300;108191;-67
2022/12/26 12:11:54;;;;;;;22.80;10.90;;;;;;;7.60;77.53;98899.11;103254;1295;99243;-67
2022/12/26 12:14:59;;;;;;;22.10;11.50;;;;;;;7.62;77.69;98897.05;103318;1301;96449;-69
2022/12/26 12:17:53;;;;;;;23.00;11.50;;;;;;;7.62;77.71;98892.27;103215;1302;113703;-68
2022/12/26 12:20:43;;;;;;;24.40;11.20;;;;;;;7.64;77.56;98877.68;103246;1300;96534;-67
2022/12/26 12:23:18;;;;;;;24.40;11.30;;;;;;;7.63;77.62;98868.36;103252;1300;109432;-67
2022/12/26 12:26:05;;;;;;;24.60;11.80;;;;;;;7.65;77.47;98866.69;103253;1294;96463;-68
2022/12/26 12:28:55;;;;;;;22.70;11.20;;;;;;;7.67;77.69;98875.03;103328;1300;99209;-69
2022/12/26 12:31:52;;;;;;;21.80;10.40;;;;;;;7.71;77.69;98875.80;103275;1293;113206;-67
2022/12/26 12:34:52;;;;;;;24.50;11.50;;;;;;;7.76;77.61;98884.33;103255;1302;99225;-67
2022/12/26 12:37:51;;;;;;;23.20;10.70;;;;;;;7.79;77.64;98892.75;103210;1301;108082;-69
2022/12/26 12:40:55;;;;;;;23.80;11.00;;;;;;;7.82;77.65;98888.68;103301;1298;99323;-67
2022/12/26 12:43:32;;;;;;;22.50;10.70;;;;;;;7.86;77.59;98875.42;103298;1294;99206;-67
2022/12/26 12:46:22;;;;;;;24.30;11.70;;;;;;;7.86;77.45;98869.71;103269;1294;113148;-67
2022/12/26 12:49:17;;;;;;;24.90;11.50;;;;;;;7.86;77.23;98868.52;103296;1284;99710;-67
2022/12/26 12:52:01;;;;;;;24.30;11.90;;;;;;;7.89;77.54;98869.04;103310;1300;108126;-67
2022/12/26 12:54:36;;;;;;;22.70;11.20;;;;;;;7.90;77.44;98863.49;103285;1300;99886;-67
2022/12/26 12:57:28;;;;;;;22.50;11.30;;;;;;;7.92;77.49;98868.80;103336;1285;99213;-67
2022/12/26 13:00:22;;;;;;;24.00;11.20;;;;;;;7.95;77.54;98869.48;103241;1302;112859;-67
2022/12/26 13:03:15;;;;;;;21.90;10.80;;;;;;;7.97;77.46;98864.75;103272;1293;99328;-68
2022/12/26 13:06:02;;;;;;;23.60;10.80;;;;;;;8.00;77.47;98868.17;103314;1300;108014;-67
2022/12/26 13:08:41;;;;;;;24.20;10.50;;;;;;;8.02;77.51;98865.19;103260;1302;99553;-67
2022/12/26 13:11:37;;;;;;;22.30;11.20;;;;;;;8.03;77.45;98867.03;103310;1302;99328;-66
2022/12/26 13:14:06;;;;;;;23.50;11.30;;;;;;;8.05;77.36;98872.55;103280;1300;113664;-68
2022/12/26 13:16:50;;;;;;;24.70;11.70;;;;;;;8.07;77.47;98875.29;103302;1302;99319;-67
2022/12/26 13:19:24;;;;;;;22.70;10.80;;;;;;;8.08;77.43;98884.90;103323;1295;108118;-67
2022/12/26 13:21:56;;;;;;;22.90;11.30;;;;;;;8.07;77.35;98891.70;103151;1298;99315;-68
2022/12/26 13:24:48;;;;;;;24.60;12.10;;;;;;;8.07;77.29;98887.65;103391;1301;99246;-68
2022/12/26 13:27:30;;;;;;;22.30;11.20;;;;;;;8.06;77.14;98887.17;103297;1300;113308;-66
2022/12/26 13:29:58;;;;;;;23.30;11.70;;;;;;;8.04;77.32;98884.46;103312;1301;96712;-67
2022/12/26 13:32:31;;;;;;;23.80;11.50;;;;;;;8.04;77.21;98883.42;103289;1295;108058;-66
2022/12/26 13:35:03;;;;;;;24.40;12.10;;;;;;;8.03;77.12;98872.52;103298;1302;100439;-66
2022/12/26 13:37:37;;;;;;;25.00;12.00;;;;;;;8.03;77.23;98870.23;103306;1295;99349;-66
2022/12/26 13:40:11;;;;;;;25.00;11.60;;;;;;;8.02;77.12;98867.29;103302;1301;113134;-66
2022/12/26 13:45:40;;;;;;;24.50;11.90;;;;;;;7.95;76.98;98872.17;103279;1300;108153;-66
2022/12/26 13:48:15;;;;;;;24.30;11.40;;;;;;;7.92;77.19;98875.89;103316;1301;99218;-66
2022/12/26 13:50:50;;;;;;;27.20;12.90;;;;;;;7.88;77.06;98884.05;103292;1302;100298;-66
2022/12/26 13:53:24;;;;;;;23.90;11.40;;;;;;;7.86;76.96;98884.20;103298;1292;113298;-67
2022/12/26 13:55:56;;;;;;;22.70;11.20;;;;;;;7.84;77.01;98877.12;103312;1294;99336;-68
2022/12/26 13:58:46;;;;;;;24.20;11.30;;;;;;;7.81;77.05;98875.15;103283;1300;107816;-67
2022/12/26 14:01:43;;;;;;;23.50;11.40;;;;;;;7.79;76.90;98881.48;103253;1302;99327;-67
2022/12/26 14:04:45;;;;;;;23.50;11.30;;;;;;;7.75;76.99;98882.60;103218;1300;96537;-68
2022/12/26 14:07:36;;;;;;;23.50;10.70;;;;;;;7.70;76.91;98881.50;103305;1284;112201;-69
2022/12/26 14:10:38;;;;;;;23.40;11.50;;;;;;;7.68;76.98;98887.31;103179;1302;100833;-69